createdAt,value
2019-03-09T00:02:10.323Z,96680.13
2019-03-09T00:04:41.659Z,96686.23
2019-03-09T00:07:13.132Z,96684.41
2019-03-09T00:09:44.754Z,96686.72
2019-03-09T00:12:17.679Z,96685.40
2019-03-09T00:14:48.891Z,96698.28
2019-03-09T00:17:20.090Z,96689.28
2019-03-09T00:19:51.558Z,96685.14
2019-03-09T00:22:22.974Z,96690.70
2019-03-09T00:24:58.281Z,96692.20
2019-03-09T00:27:48.612Z,96694.64
2019-03-09T00:30:27.505Z,96695.45
2019-03-09T00:32:58.744Z,96685.53
2019-03-09T00:35:29.939Z,96690.30
2019-03-09T00:38:01.278Z,96686.25
2019-03-09T00:40:32.895Z,96696.05
2019-03-09T00:43:04.158Z,96699.50
2019-03-09T00:45:35.636Z,96698.68
2019-03-09T00:48:06.619Z,96699.80
2019-03-09T00:50:37.871Z,96686.44
2019-03-09T00:53:09.208Z,96683.42
2019-03-09T00:55:40.700Z,96686.23
2019-03-09T00:58:12.363Z,96666.22
2019-03-09T01:00:43.436Z,96661.06
2019-03-09T01:03:14.647Z,96659.75
2019-03-09T01:05:45.959Z,96661.19
2019-03-09T01:08:17.216Z,96662.19
2019-03-09T01:10:48.279Z,96659.47
2019-03-09T01:13:19.262Z,96653.19
2019-03-09T01:15:50.542Z,96636.19
2019-03-09T01:18:22.101Z,96641.53
2019-03-09T01:20:54.568Z,96642.06
2019-03-09T01:23:25.975Z,96644.47
2019-03-09T01:25:59.003Z,96636.01
2019-03-09T01:28:30.065Z,96633.56
2019-03-09T01:31:01.908Z,96628.91
2019-03-09T01:33:32.968Z,96633.27
2019-03-09T01:36:04.366Z,96625.59
2019-03-09T01:38:35.983Z,96623.06
2019-03-09T01:41:07.076Z,96611.33
2019-03-09T01:43:38.050Z,96605.56
2019-03-09T01:46:09.195Z,96597.88
2019-03-09T01:48:40.848Z,96596.95
2019-03-09T01:51:11.826Z,96595.43
2019-03-09T01:53:42.830Z,96602.73
2019-03-09T01:56:14.160Z,96601.78
2019-03-09T01:58:45.410Z,96594.70
2019-03-09T02:01:17.084Z,96586.41
2019-03-09T02:03:48.067Z,96587.14
2019-03-09T02:06:19.321Z,96585.94
2019-03-09T02:08:50.817Z,96575.69
2019-03-09T02:11:22.747Z,96563.59
2019-03-09T02:13:54.035Z,96563.40
2019-03-09T02:16:25.403Z,96566.22
2019-03-09T02:18:56.426Z,96567.48
2019-03-09T02:21:28.456Z,96569.65
2019-03-09T02:23:59.520Z,96562.38
2019-03-09T02:26:30.579Z,96562.66
2019-03-09T02:29:01.926Z,96549.73
2019-03-09T02:31:33.559Z,96533.48
2019-03-09T02:34:04.858Z,96531.16
2019-03-09T02:36:35.900Z,96529.03
2019-03-09T02:39:23.384Z,96527.58
2019-03-09T02:41:55.399Z,96524.75
2019-03-09T02:44:26.999Z,96529.41
2019-03-09T02:47:00.309Z,96540.22
2019-03-09T02:49:31.670Z,96527.91
2019-03-09T02:52:02.719Z,96525.17
2019-03-09T02:54:33.768Z,96518.94
2019-03-09T02:57:05.111Z,96521.23
2019-03-09T02:59:36.544Z,96507.48
2019-03-09T03:02:33.390Z,96509.45
2019-03-09T03:05:04.749Z,96511.00
2019-03-09T03:07:36.306Z,96514.25
2019-03-09T03:10:08.298Z,96513.08
2019-03-09T03:12:39.691Z,96515.67
2019-03-09T03:15:11.217Z,96508.43
2019-03-09T03:17:42.332Z,96490.72
2019-03-09T03:20:13.440Z,96491.89
2019-03-09T03:22:44.749Z,96499.05
2019-03-09T03:25:16.984Z,96497.56
2019-03-09T03:27:47.951Z,96488.83
2019-03-09T03:30:19.051Z,96475.62
2019-03-09T03:32:51.323Z,96475.84
2019-03-09T03:35:22.732Z,96471.44
2019-03-09T03:37:53.724Z,96457.77
2019-03-09T03:40:25.054Z,96455.92
2019-03-09T03:42:56.689Z,96448.25
2019-03-09T03:45:28.897Z,96446.73
2019-03-09T03:48:00.190Z,96454.12
2019-03-09T03:50:31.190Z,96439.13
2019-03-09T03:53:02.675Z,96444.09
2019-03-09T03:55:34.543Z,96435.70
2019-03-09T03:58:06.322Z,96428.50
2019-03-09T04:00:37.518Z,96437.67
2019-03-09T04:03:08.908Z,96436.06
2019-03-09T04:05:42.570Z,96438.26
2019-03-09T04:08:14.119Z,96425.87
2019-03-09T04:10:45.344Z,96440.64
2019-03-09T04:13:17.256Z,96434.72
2019-03-09T04:15:48.493Z,96437.33
2019-03-09T04:18:19.582Z,96436.25
2019-03-09T04:20:50.895Z,96439.08
2019-03-09T04:23:22.206Z,96430.66
2019-03-09T04:25:53.298Z,96429.55
2019-03-09T04:28:24.278Z,96434.16
2019-03-09T04:30:55.859Z,96440.45
2019-03-09T04:33:26.936Z,96436.77
2019-03-09T04:35:58.750Z,96437.66
2019-03-09T04:38:30.030Z,96441.05
2019-03-09T04:41:01.405Z,96445.22
2019-03-09T04:43:32.399Z,96441.30
2019-03-09T04:46:03.966Z,96456.57
2019-03-09T04:48:35.644Z,96463.35
2019-03-09T04:51:06.862Z,96461.22
2019-03-09T04:53:38.123Z,96469.00
2019-03-09T04:56:09.183Z,96464.27
2019-03-09T04:58:40.710Z,96471.03
2019-03-09T05:01:11.775Z,96472.65
2019-03-09T05:03:45.328Z,96477.49
2019-03-09T05:06:19.489Z,96485.38
2019-03-09T05:09:23.315Z,96491.12
2019-03-09T05:11:54.311Z,96486.09
2019-03-09T05:14:26.913Z,96492.13
2019-03-09T05:16:58.996Z,96498.70
2019-03-09T05:19:30.309Z,96489.41
2019-03-09T05:22:01.537Z,96494.27
2019-03-09T05:24:32.608Z,96490.92
2019-03-09T05:27:03.600Z,96496.27
2019-03-09T05:29:35.296Z,96499.91
2019-03-09T05:32:06.264Z,96499.83
2019-03-09T05:34:38.035Z,96507.52
2019-03-09T05:37:10.403Z,96503.40
2019-03-09T05:39:41.416Z,96501.86
2019-03-09T05:42:12.391Z,96503.22
2019-03-09T05:44:43.998Z,96499.80
2019-03-09T05:47:15.314Z,96502.33
2019-03-09T05:49:46.273Z,96497.34
2019-03-09T05:52:37.245Z,96512.58
2019-03-09T05:55:19.949Z,96519.32
2019-03-09T05:57:51.496Z,96514.60
2019-03-09T06:00:22.593Z,96519.76
2019-03-09T06:02:53.830Z,96530.48
2019-03-09T06:05:36.593Z,96537.98
2019-03-09T06:08:08.932Z,96545.78
2019-03-09T06:10:39.903Z,96545.89
2019-03-09T06:13:10.946Z,96546.09
2019-03-09T06:15:44.059Z,96534.70
2019-03-09T06:18:14.760Z,96532.50
2019-03-09T06:20:45.825Z,96528.15
2019-03-09T06:23:17.810Z,96525.05
2019-03-09T06:25:48.913Z,96531.88
2019-03-09T06:28:19.949Z,96525.88
2019-03-09T06:30:51.439Z,96516.45
2019-03-09T06:33:36.754Z,96517.31
2019-03-09T06:36:40.065Z,96514.73
2019-03-09T06:39:21.163Z,96523.39
2019-03-09T06:42:33.102Z,96525.14
2019-03-09T06:45:05.394Z,96528.39
2019-03-09T06:47:36.369Z,96520.09
2019-03-09T06:50:09.767Z,96527.08
2019-03-09T06:52:40.800Z,96532.42
2019-03-09T06:55:12.703Z,96531.27
2019-03-09T06:57:44.145Z,96549.50
2019-03-09T07:00:46.768Z,96546.94
2019-03-09T07:03:18.161Z,96546.42
2019-03-09T07:05:49.284Z,96544.45
2019-03-09T07:08:20.618Z,96557.46
2019-03-09T07:10:51.586Z,96573.08
2019-03-09T07:13:23.237Z,96567.97
2019-03-09T07:15:54.258Z,96569.03
2019-03-09T07:18:33.869Z,96581.28
2019-03-09T07:21:05.189Z,96579.81
2019-03-09T07:23:36.524Z,96583.91
2019-03-09T07:26:07.509Z,96585.03
2019-03-09T07:28:38.593Z,96583.92
2019-03-09T07:31:09.730Z,96581.41
2019-03-09T07:33:40.959Z,96589.80
2019-03-09T07:36:12.004Z,96588.88
2019-03-09T07:38:43.640Z,96586.06
2019-03-09T07:41:14.626Z,96597.05
2019-03-09T07:43:45.661Z,96594.77
2019-03-09T07:46:17.663Z,96595.59
2019-03-09T07:48:48.671Z,96590.10
2019-03-09T07:51:19.705Z,96590.83
2019-03-09T07:53:51.033Z,96586.38
2019-03-09T07:56:22.844Z,96588.79
2019-03-09T07:58:53.860Z,96583.25
2019-03-09T08:01:24.892Z,96580.20
2019-03-09T08:03:56.848Z,96586.66
2019-03-09T08:06:28.190Z,96566.22
2019-03-09T08:08:59.914Z,96565.70
2019-03-09T08:11:30.894Z,96578.34
2019-03-09T08:14:02.345Z,96568.87
2019-03-09T08:16:35.734Z,96560.70
2019-03-09T08:19:07.229Z,96558.55
2019-03-09T08:21:39.550Z,96554.81
2019-03-09T08:24:10.632Z,96563.50
2019-03-09T08:26:42.181Z,96569.19
2019-03-09T08:29:13.743Z,96581.06
2019-03-09T08:31:44.767Z,96599.45
2019-03-09T08:34:15.764Z,96601.88
2019-03-09T08:36:47.440Z,96616.97
2019-03-09T08:39:19.093Z,96623.92
2019-03-09T08:41:50.681Z,96641.78
2019-03-09T08:44:22.000Z,96647.96
2019-03-09T08:46:53.058Z,96654.87
2019-03-09T08:49:24.119Z,96656.92
2019-03-09T08:51:55.939Z,96666.22
2019-03-09T08:54:27.004Z,96666.46
2019-03-09T08:56:59.260Z,96684.22
2019-03-09T08:59:30.862Z,96686.33
2019-03-09T09:02:02.129Z,96686.47
2019-03-09T09:04:34.721Z,96693.73
2019-03-09T09:07:06.030Z,96679.07
2019-03-09T09:09:37.545Z,96674.79
2019-03-09T09:12:08.676Z,96675.61
2019-03-09T09:14:40.021Z,96664.33
2019-03-09T09:17:11.374Z,96660.84
2019-03-09T09:19:42.434Z,96666.22
2019-03-09T09:22:13.449Z,96667.02
2019-03-09T09:24:45.325Z,96662.72
2019-03-09T09:27:16.375Z,96671.49
2019-03-09T09:29:47.532Z,96677.14
2019-03-09T09:32:18.739Z,96672.14
2019-03-09T09:34:50.395Z,96661.20
2019-03-09T09:37:21.674Z,96651.74
2019-03-09T09:39:52.990Z,96649.96
2019-03-09T09:42:24.159Z,96658.44
2019-03-09T09:44:55.522Z,96675.68
2019-03-09T09:47:26.559Z,96683.20
2019-03-09T09:49:57.797Z,96695.40
2019-03-09T09:52:29.609Z,96697.23
2019-03-09T09:55:00.972Z,96689.14
2019-03-09T09:57:32.222Z,96686.83
2019-03-09T10:00:03.740Z,96676.82
2019-03-09T10:02:34.715Z,96674.53
2019-03-09T10:05:06.352Z,96678.69
2019-03-09T10:07:37.622Z,96690.92
2019-03-09T10:10:11.028Z,96686.20
2019-03-09T10:12:42.092Z,96688.72
2019-03-09T10:15:19.416Z,96697.27
2019-03-09T10:17:50.508Z,96691.01
2019-03-09T10:20:22.034Z,96702.21
2019-03-09T10:23:02.982Z,96697.70
2019-03-09T10:25:26.586Z,96697.04
2019-03-09T10:27:57.960Z,96697.85
2019-03-09T10:30:29.731Z,96689.75
2019-03-09T10:33:00.716Z,96691.91
2019-03-09T10:35:33.126Z,96682.16
2019-03-09T10:38:04.100Z,96678.67
2019-03-09T10:40:35.229Z,96671.96
2019-03-09T10:43:06.308Z,96672.53
2019-03-09T10:45:37.704Z,96665.79
2019-03-09T10:48:08.755Z,96678.01
2019-03-09T10:50:39.798Z,96675.12
2019-03-09T10:53:10.835Z,96675.25
2019-03-09T10:55:42.693Z,96689.38
2019-03-09T10:58:14.192Z,96691.30
2019-03-09T11:00:45.233Z,96682.62
2019-03-09T11:03:16.322Z,96690.23
2019-03-09T11:05:47.508Z,96689.09
2019-03-09T11:08:18.605Z,96685.33
2019-03-09T11:10:50.084Z,96679.39
2019-03-09T11:13:21.486Z,96681.61
2019-03-09T11:15:52.835Z,96675.94
2019-03-09T11:18:24.055Z,96687.41
2019-03-09T11:20:55.198Z,96685.58
2019-03-09T11:23:26.206Z,96687.84
2019-03-09T11:25:57.168Z,96689.83
2019-03-09T11:28:28.153Z,96694.35
2019-03-09T11:31:00.414Z,96705.23
2019-03-09T11:33:31.462Z,96698.27
2019-03-09T11:36:02.537Z,96700.37
2019-03-09T11:38:34.160Z,96683.64
2019-03-09T11:41:05.339Z,96668.70
2019-03-09T11:43:36.646Z,96659.27
2019-03-09T11:46:08.198Z,96651.58
2019-03-09T11:48:39.183Z,96653.48
2019-03-09T11:51:10.213Z,96667.38
2019-03-09T11:53:41.204Z,96680.48
2019-03-09T11:56:12.486Z,96689.08
2019-03-09T11:58:43.464Z,96691.72
2019-03-09T12:01:14.460Z,96698.93
2019-03-09T12:03:47.294Z,96705.64
2019-03-09T12:06:18.598Z,96697.36
2019-03-09T12:08:49.822Z,96702.09
2019-03-09T12:13:11.032Z,96701.11
2019-03-09T12:15:42.606Z,96698.27
2019-03-09T12:18:14.319Z,96698.47
2019-03-09T12:20:45.262Z,96703.58
2019-03-09T12:23:22.202Z,96700.33
2019-03-09T12:25:53.713Z,96693.41
2019-03-09T12:28:25.242Z,96687.03
2019-03-09T12:30:56.238Z,96703.45
2019-03-09T12:33:27.305Z,96704.86
2019-03-09T12:35:58.410Z,96710.34
2019-03-09T12:38:30.777Z,96697.80
2019-03-09T12:41:01.768Z,96690.03
2019-03-09T12:43:33.148Z,96675.33
2019-03-09T12:46:04.256Z,96678.19
2019-03-09T12:48:35.634Z,96677.16
2019-03-09T12:51:06.629Z,96688.53
2019-03-09T12:53:37.633Z,96684.95
2019-03-09T12:56:08.942Z,96690.27
2019-03-09T12:58:39.944Z,96679.80
2019-03-09T13:01:11.280Z,96676.25
2019-03-09T13:03:42.342Z,96671.58
2019-03-09T13:06:13.437Z,96667.57
2019-03-09T13:08:44.914Z,96662.56
2019-03-09T13:11:16.583Z,96653.56
2019-03-09T13:13:47.823Z,96654.61
2019-03-09T13:16:19.165Z,96655.63
2019-03-09T13:18:50.969Z,96657.98
2019-03-09T13:21:22.068Z,96626.34
2019-03-09T13:23:54.142Z,96625.23
2019-03-09T13:26:26.233Z,96628.70
2019-03-09T13:28:57.354Z,96619.88
2019-03-09T13:31:28.758Z,96596.86
2019-03-09T13:34:01.262Z,96600.31
2019-03-09T13:36:32.248Z,96583.56
2019-03-09T13:39:05.037Z,96583.45
2019-03-09T13:41:36.618Z,96576.50
2019-03-09T13:44:07.703Z,96561.85
2019-03-09T13:46:39.007Z,96557.01
2019-03-09T13:49:10.375Z,96554.72
2019-03-09T13:51:41.959Z,96552.44
2019-03-09T13:54:14.645Z,96544.84
2019-03-09T13:56:45.957Z,96544.02
2019-03-09T13:59:18.962Z,96552.80
2019-03-09T14:01:50.007Z,96549.01
2019-03-09T14:04:21.294Z,96557.20
2019-03-09T14:06:52.796Z,96545.23
2019-03-09T14:09:23.951Z,96565.03
2019-03-09T14:11:55.144Z,96555.94
2019-03-09T14:14:27.767Z,96553.98
2019-03-09T14:17:02.673Z,96515.56
2019-03-09T14:19:34.438Z,96500.45
2019-03-09T14:22:05.525Z,96498.91
2019-03-09T14:24:37.546Z,96538.84
2019-03-09T14:27:08.616Z,96541.86
2019-03-09T14:29:39.724Z,96543.66
2019-03-09T14:32:10.710Z,96544.40
2019-03-09T14:34:42.184Z,96537.55
2019-03-09T14:37:13.276Z,96529.91
2019-03-09T14:39:44.820Z,96548.37
2019-03-09T14:42:16.306Z,96546.45
2019-03-09T14:44:47.625Z,96555.07
2019-03-09T14:47:18.742Z,96567.06
2019-03-09T14:49:50.058Z,96563.45
2019-03-09T14:52:21.052Z,96551.35
2019-03-09T14:54:52.115Z,96557.23
2019-03-09T14:57:23.683Z,96555.44
2019-03-09T14:59:54.902Z,96549.64
2019-03-09T15:02:26.253Z,96531.30
2019-03-09T15:04:57.557Z,96539.84
2019-03-09T15:07:28.565Z,96530.62
2019-03-09T15:10:00.786Z,96542.45
2019-03-09T15:12:31.861Z,96541.53
2019-03-09T15:15:03.491Z,96540.50
2019-03-09T15:17:34.469Z,96529.96
2019-03-09T15:20:06.097Z,96533.70
2019-03-09T15:22:37.076Z,96527.59
2019-03-09T15:25:09.377Z,96527.73
2019-03-09T15:27:40.364Z,96515.89
2019-03-09T15:30:13.725Z,96523.97
2019-03-09T15:32:45.075Z,96529.52
2019-03-09T15:35:16.956Z,96531.24
2019-03-09T15:37:48.415Z,96530.73
2019-03-09T15:40:21.037Z,96535.15
2019-03-09T15:42:52.554Z,96549.14
2019-03-09T15:45:23.947Z,96546.95
2019-03-09T15:47:55.031Z,96558.31
2019-03-09T15:50:26.471Z,96566.98
2019-03-09T15:52:57.455Z,96571.09
2019-03-09T15:55:28.450Z,96549.06
2019-03-09T15:58:00.739Z,96552.43
2019-03-09T16:00:32.193Z,96551.16
2019-03-09T16:03:03.527Z,96546.16
2019-03-09T16:05:35.067Z,96534.68
2019-03-09T16:08:06.244Z,96533.59
2019-03-09T16:10:37.540Z,96527.92
2019-03-09T16:13:08.917Z,96536.09
2019-03-09T16:15:40.361Z,96543.27
2019-03-09T16:18:11.958Z,96517.66
2019-03-09T16:20:43.161Z,96519.64
2019-03-09T16:23:14.572Z,96511.38
2019-03-09T16:25:45.677Z,96509.86
2019-03-09T16:28:17.049Z,96511.11
2019-03-09T16:30:48.374Z,96526.11
2019-03-09T16:33:20.336Z,96540.62
2019-03-09T16:35:51.590Z,96545.52
2019-03-09T16:38:23.145Z,96556.52
2019-03-09T16:40:54.381Z,96544.34
2019-03-09T16:43:25.422Z,96565.42
2019-03-09T16:45:56.661Z,96577.84
2019-03-09T16:48:28.014Z,96562.02
2019-03-09T16:50:59.242Z,96567.56
2019-03-09T16:53:31.027Z,96562.29
2019-03-09T16:56:03.133Z,96564.73
2019-03-09T16:58:34.739Z,96554.75
2019-03-09T17:01:05.862Z,96568.38
2019-03-09T17:03:36.928Z,96566.59
2019-03-09T17:06:07.900Z,96569.09
2019-03-09T17:08:38.924Z,96567.90
2019-03-09T17:11:09.989Z,96565.41
2019-03-09T17:13:41.006Z,96567.91
2019-03-09T17:16:12.424Z,96572.04
2019-03-09T17:18:44.315Z,96555.57
2019-03-09T17:21:16.338Z,96555.59
2019-03-09T17:23:47.636Z,96565.59
2019-03-09T17:26:19.352Z,96566.64
2019-03-09T17:28:50.905Z,96584.84
2019-03-09T17:31:21.965Z,96581.42
2019-03-09T17:33:53.224Z,96578.15
2019-03-09T17:36:24.476Z,96574.57
2019-03-09T17:38:56.298Z,96583.37
2019-03-09T17:41:27.663Z,96574.53
2019-03-09T17:43:58.712Z,96576.80
2019-03-09T17:46:36.150Z,96592.38
2019-03-09T17:49:07.101Z,96591.61
2019-03-09T17:51:38.098Z,96583.70
2019-03-09T17:54:09.645Z,96588.92
2019-03-09T17:56:41.115Z,96572.52
2019-03-09T17:59:12.204Z,96579.13
2019-03-09T18:01:43.273Z,96586.84
2019-03-09T18:04:15.520Z,96606.35
2019-03-09T18:06:48.816Z,96592.33
2019-03-09T18:09:26.009Z,96597.28
2019-03-09T18:11:57.133Z,96591.15
2019-03-09T18:14:28.387Z,96603.32
2019-03-09T18:16:59.598Z,96628.62
2019-03-09T18:19:31.340Z,96628.19
2019-03-09T18:22:03.967Z,96640.06
2019-03-09T18:24:35.047Z,96640.61
2019-03-09T18:27:06.177Z,96653.38
2019-03-09T18:29:37.514Z,96660.14
2019-03-09T18:32:08.752Z,96668.08
2019-03-09T18:34:39.824Z,96679.98
2019-03-09T18:37:12.073Z,96685.58
2019-03-09T18:39:43.530Z,96691.92
2019-03-09T18:42:14.559Z,96701.92
2019-03-09T18:44:45.481Z,96710.00
2019-03-09T18:47:16.538Z,96712.45
2019-03-09T18:49:47.969Z,96719.78
2019-03-09T18:52:19.280Z,96717.64
2019-03-09T18:54:51.046Z,96741.59
2019-03-09T18:57:22.338Z,96727.83
2019-03-09T18:59:54.010Z,96738.73
2019-03-09T19:02:26.235Z,96747.00
2019-03-09T19:04:57.190Z,96743.07
2019-03-09T19:07:28.443Z,96738.45
2019-03-09T19:09:59.722Z,96746.57
2019-03-09T19:12:31.451Z,96744.30
2019-03-09T19:15:02.904Z,96741.30
2019-03-09T19:17:34.845Z,96747.52
2019-03-09T19:20:07.021Z,96753.20
2019-03-09T19:22:38.323Z,96753.82
2019-03-09T19:25:10.416Z,96762.92
2019-03-09T19:27:41.466Z,96765.31
2019-03-09T19:30:14.653Z,96757.45
2019-03-09T19:32:46.090Z,96764.69
2019-03-09T19:35:17.270Z,96766.59
2019-03-09T19:37:48.344Z,96755.38
2019-03-09T19:40:20.102Z,96764.81
2019-03-09T19:42:51.259Z,96761.48
2019-03-09T19:45:22.768Z,96757.61
2019-03-09T19:47:53.951Z,96763.95
2019-03-09T19:50:25.273Z,96754.15
2019-03-09T19:52:58.937Z,96753.73
2019-03-09T19:55:29.924Z,96758.72
2019-03-09T19:58:01.553Z,96755.70
2019-03-09T20:00:32.552Z,96753.98
2019-03-09T20:03:03.531Z,96762.55
2019-03-09T20:05:34.937Z,96767.54
2019-03-09T20:08:05.967Z,96770.83
2019-03-09T20:10:37.186Z,96766.01
2019-03-09T20:13:08.594Z,96766.54
2019-03-09T20:15:39.614Z,96769.48
2019-03-09T20:18:11.041Z,96774.49
2019-03-09T20:20:42.378Z,96761.36
2019-03-09T20:23:13.443Z,96768.55
2019-03-09T20:25:44.875Z,96772.05
2019-03-09T20:28:16.431Z,96772.39
2019-03-09T20:30:47.596Z,96781.22
2019-03-09T20:33:19.597Z,96779.23
2019-03-09T20:35:50.609Z,96776.11
2019-03-09T20:38:22.217Z,96782.77
2019-03-09T20:40:53.490Z,96784.47
2019-03-09T20:43:24.807Z,96790.36
2019-03-09T20:45:56.360Z,96792.37
2019-03-09T20:48:29.219Z,96801.80
2019-03-09T20:51:00.343Z,96786.82
2019-03-09T20:53:32.391Z,96790.31
2019-03-09T20:56:03.496Z,96799.55
2019-03-09T20:58:34.586Z,96803.70
2019-03-09T21:01:05.827Z,96802.18
2019-03-09T21:03:36.946Z,96806.75
2019-03-09T21:06:08.007Z,96811.52
2019-03-09T21:08:38.980Z,96800.37
2019-03-09T21:11:09.976Z,96794.35
2019-03-09T21:13:41.283Z,96801.19
2019-03-09T21:16:12.574Z,96802.75
2019-03-09T21:18:43.604Z,96808.44
2019-03-09T21:21:14.585Z,96803.45
2019-03-09T21:23:45.597Z,96796.77
2019-03-09T21:26:16.851Z,96801.35
2019-03-09T21:28:48.157Z,96798.42
2019-03-09T21:31:20.025Z,96801.48
2019-03-09T21:33:51.093Z,96800.98
2019-03-09T21:36:22.345Z,96807.41
2019-03-09T21:38:53.395Z,96804.08
2019-03-09T21:41:24.430Z,96794.67
2019-03-09T21:43:55.454Z,96805.35
2019-03-09T21:46:27.105Z,96803.31
2019-03-09T21:48:58.091Z,96803.53
2019-03-09T21:51:29.405Z,96798.94
2019-03-09T21:54:01.970Z,96803.53
2019-03-09T21:56:33.139Z,96798.05
2019-03-09T21:59:04.258Z,96792.56
2019-03-09T22:01:36.327Z,96799.61
2019-03-09T22:04:07.402Z,96803.28
2019-03-09T22:06:38.966Z,96800.02
2019-03-09T22:09:10.137Z,96798.42
2019-03-09T22:11:41.612Z,96798.76
2019-03-09T22:14:12.761Z,96803.58
2019-03-09T22:16:44.057Z,96806.42
2019-03-09T22:19:15.353Z,96807.20
2019-03-09T22:21:46.408Z,96805.84
2019-03-09T22:24:17.933Z,96806.80
2019-03-09T22:26:50.116Z,96798.38
2019-03-09T22:29:21.052Z,96797.38
2019-03-09T22:31:52.384Z,96803.33
2019-03-09T22:34:23.638Z,96808.20
2019-03-09T22:36:54.702Z,96796.66
2019-03-09T22:39:26.014Z,96801.39
2019-03-09T22:41:57.018Z,96800.72
2019-03-09T22:44:28.101Z,96808.48
2019-03-09T22:46:59.464Z,96803.11
2019-03-09T22:49:30.438Z,96796.89
2019-03-09T22:52:02.252Z,96794.42
2019-03-09T22:54:34.022Z,96787.45
2019-03-09T22:57:06.635Z,96778.86
2019-03-09T22:59:38.936Z,96783.45
2019-03-09T23:02:10.157Z,96786.34
2019-03-09T23:04:41.149Z,96782.09
2019-03-09T23:07:12.149Z,96776.53
2019-03-09T23:09:43.436Z,96771.26
2019-03-09T23:12:14.561Z,96768.63
2019-03-09T23:14:46.859Z,96767.33
2019-03-09T23:17:17.869Z,96775.92
2019-03-09T23:19:49.540Z,96768.93
2019-03-09T23:22:21.535Z,96765.95
2019-03-09T23:24:52.503Z,96755.89
2019-03-09T23:27:23.748Z,96761.25
2019-03-09T23:29:54.726Z,96768.18
2019-03-09T23:32:25.707Z,96768.64
2019-03-09T23:34:57.161Z,96765.12
2019-03-09T23:37:28.208Z,96762.91
2019-03-09T23:39:59.505Z,96765.25
2019-03-09T23:42:31.165Z,96769.45
2019-03-09T23:45:03.613Z,96764.52
2019-03-09T23:47:35.009Z,96756.39
2019-03-09T23:50:07.438Z,96749.09
2019-03-09T23:52:38.516Z,96737.20
2019-03-09T23:55:20.737Z,96733.05
2019-03-09T23:57:43.917Z,96724.37
